sensor_id;sensor_type;location;lat;lon;timestamp;temperature;humidity
68746;SHT31;66104;45.456;11.064;2023-06-04T00:01:09;22.13;64.70
68746;SHT31;66104;45.456;11.064;2023-06-04T00:03:46;22.10;64.77
68746;SHT31;66104;45.456;11.064;2023-06-04T00:06:24;22.12;64.73
68746;SHT31;66104;45.456;11.064;2023-06-04T00:09:02;22.18;64.57
68746;SHT31;66104;45.456;11.064;2023-06-04T00:11:38;22.26;64.41
68746;SHT31;66104;45.456;11.064;2023-06-04T00:14:15;22.33;64.31
68746;SHT31;66104;45.456;11.064;2023-06-04T00:16:52;22.35;64.29
68746;SHT31;66104;45.456;11.064;2023-06-04T00:19:29;22.27;64.36
68746;SHT31;66104;45.456;11.064;2023-06-04T00:22:06;22.23;64.46
68746;SHT31;66104;45.456;11.064;2023-06-04T00:24:43;22.20;64.49
68746;SHT31;66104;45.456;11.064;2023-06-04T00:27:21;22.19;64.52
68746;SHT31;66104;45.456;11.064;2023-06-04T00:29:57;22.24;64.48
68746;SHT31;66104;45.456;11.064;2023-06-04T00:32:34;22.26;64.41
68746;SHT31;66104;45.456;11.064;2023-06-04T00:35:11;22.29;64.48
68746;SHT31;66104;45.456;11.064;2023-06-04T00:37:49;22.29;64.41
68746;SHT31;66104;45.456;11.064;2023-06-04T00:40:26;22.25;64.59
68746;SHT31;66104;45.456;11.064;2023-06-04T00:43:03;22.20;64.70
68746;SHT31;66104;45.456;11.064;2023-06-04T00:45:42;22.21;64.70
68746;SHT31;66104;45.456;11.064;2023-06-04T00:48:19;22.18;64.77
68746;SHT31;66104;45.456;11.064;2023-06-04T00:50:58;22.15;64.91
68746;SHT31;66104;45.456;11.064;2023-06-04T00:53:35;22.15;65.16
68746;SHT31;66104;45.456;11.064;2023-06-04T00:56:13;22.10;65.30
68746;SHT31;66104;45.456;11.064;2023-06-04T00:58:49;22.09;65.27
68746;SHT31;66104;45.456;11.064;2023-06-04T01:01:29;22.06;65.62
68746;SHT31;66104;45.456;11.064;2023-06-04T01:04:18;22.01;65.84
68746;SHT31;66104;45.456;11.064;2023-06-04T01:07:03;21.97;66.62
68746;SHT31;66104;45.456;11.064;2023-06-04T01:09:44;21.96;66.93
68746;SHT31;66104;45.456;11.064;2023-06-04T01:12:21;21.88;67.32
68746;SHT31;66104;45.456;11.064;2023-06-04T01:14:58;21.81;67.55
68746;SHT31;66104;45.456;11.064;2023-06-04T01:17:36;21.70;67.86
68746;SHT31;66104;45.456;11.064;2023-06-04T01:20:22;21.65;67.86
68746;SHT31;66104;45.456;11.064;2023-06-04T01:23:23;21.60;67.78
68746;SHT31;66104;45.456;11.064;2023-06-04T01:26:11;21.56;68.28
68746;SHT31;66104;45.456;11.064;2023-06-04T01:28:49;21.60;68.11
68746;SHT31;66104;45.456;11.064;2023-06-04T01:31:28;21.70;68.22
68746;SHT31;66104;45.456;11.064;2023-06-04T01:34:07;21.71;68.62
68746;SHT31;66104;45.456;11.064;2023-06-04T01:36:43;21.69;68.73
68746;SHT31;66104;45.456;11.064;2023-06-04T01:39:19;21.73;68.24
68746;SHT31;66104;45.456;11.064;2023-06-04T01:41:56;21.77;68.05
68746;SHT31;66104;45.456;11.064;2023-06-04T01:44:34;21.79;68.05
68746;SHT31;66104;45.456;11.064;2023-06-04T01:47:11;21.76;68.35
68746;SHT31;66104;45.456;11.064;2023-06-04T01:49:48;21.73;68.16
68746;SHT31;66104;45.456;11.064;2023-06-04T01:52:25;21.70;68.40
68746;SHT31;66104;45.456;11.064;2023-06-04T01:55:02;21.69;68.27
68746;SHT31;66104;45.456;11.064;2023-06-04T01:57:43;21.72;68.01
68746;SHT31;66104;45.456;11.064;2023-06-04T02:00:20;21.78;67.80
68746;SHT31;66104;45.456;11.064;2023-06-04T02:02:57;21.74;67.57
68746;SHT31;66104;45.456;11.064;2023-06-04T02:05:34;21.73;67.69
68746;SHT31;66104;45.456;11.064;2023-06-04T02:08:10;21.68;67.11
68746;SHT31;66104;45.456;11.064;2023-06-04T02:10:48;21.47;67.45
68746;SHT31;66104;45.456;11.064;2023-06-04T02:13:26;21.43;67.88
68746;SHT31;66104;45.456;11.064;2023-06-04T02:16:03;21.54;68.53
68746;SHT31;66104;45.456;11.064;2023-06-04T02:18:41;21.65;68.58
68746;SHT31;66104;45.456;11.064;2023-06-04T02:21:17;21.65;68.88
68746;SHT31;66104;45.456;11.064;2023-06-04T02:23:55;21.63;69.24
68746;SHT31;66104;45.456;11.064;2023-06-04T02:26:32;21.70;69.19
68746;SHT31;66104;45.456;11.064;2023-06-04T02:29:09;21.76;69.14
68746;SHT31;66104;45.456;11.064;2023-06-04T02:31:47;21.65;69.23
68746;SHT31;66104;45.456;11.064;2023-06-04T02:34:25;21.67;68.87
68746;SHT31;66104;45.456;11.064;2023-06-04T02:37:03;21.69;68.92
68746;SHT31;66104;45.456;11.064;2023-06-04T02:39:40;21.59;69.26
68746;SHT31;66104;45.456;11.064;2023-06-04T02:42:17;21.56;69.36
68746;SHT31;66104;45.456;11.064;2023-06-04T02:44:53;21.56;69.22
68746;SHT31;66104;45.456;11.064;2023-06-04T02:47:30;21.58;69.49
68746;SHT31;66104;45.456;11.064;2023-06-04T02:50:09;21.51;69.50
68746;SHT31;66104;45.456;11.064;2023-06-04T02:52:47;21.48;69.54
68746;SHT31;66104;45.456;11.064;2023-06-04T02:55:23;21.48;69.67
68746;SHT31;66104;45.456;11.064;2023-06-04T02:58:01;21.57;69.61
68746;SHT31;66104;45.456;11.064;2023-06-04T03:00:37;21.62;69.85
68746;SHT31;66104;45.456;11.064;2023-06-04T03:03:13;21.65;69.88
68746;SHT31;66104;45.456;11.064;2023-06-04T03:05:51;21.68;69.93
68746;SHT31;66104;45.456;11.064;2023-06-04T03:08:28;21.65;70.19
68746;SHT31;66104;45.456;11.064;2023-06-04T03:11:04;21.62;70.15
68746;SHT31;66104;45.456;11.064;2023-06-04T03:13:42;21.57;70.20
68746;SHT31;66104;45.456;11.064;2023-06-04T03:16:21;21.56;69.95
68746;SHT31;66104;45.456;11.064;2023-06-04T03:18:59;21.47;70.28
68746;SHT31;66104;45.456;11.064;2023-06-04T03:21:36;21.32;70.64
68746;SHT31;66104;45.456;11.064;2023-06-04T03:24:14;21.24;70.87
68746;SHT31;66104;45.456;11.064;2023-06-04T03:26:51;21.23;70.88
68746;SHT31;66104;45.456;11.064;2023-06-04T03:29:27;21.21;71.02
68746;SHT31;66104;45.456;11.064;2023-06-04T03:32:08;21.17;71.01
68746;SHT31;66104;45.456;11.064;2023-06-04T03:34:48;21.11;70.93
68746;SHT31;66104;45.456;11.064;2023-06-04T03:37:26;21.04;71.25
68746;SHT31;66104;45.456;11.064;2023-06-04T03:40:05;21.02;71.31
68746;SHT31;66104;45.456;11.064;2023-06-04T03:42:48;20.98;71.24
68746;SHT31;66104;45.456;11.064;2023-06-04T03:45:29;21.04;71.25
68746;SHT31;66104;45.456;11.064;2023-06-04T03:48:07;21.13;71.33
68746;SHT31;66104;45.456;11.064;2023-06-04T03:50:44;21.15;71.46
68746;SHT31;66104;45.456;11.064;2023-06-04T03:53:21;21.20;71.36
68746;SHT31;66104;45.456;11.064;2023-06-04T03:55:58;21.27;71.19
68746;SHT31;66104;45.456;11.064;2023-06-04T03:58:36;21.30;71.53
68746;SHT31;66104;45.456;11.064;2023-06-04T04:01:12;21.27;71.50
68746;SHT31;66104;45.456;11.064;2023-06-04T04:03:49;21.27;71.55
68746;SHT31;66104;45.456;11.064;2023-06-04T04:06:26;21.24;71.55
68746;SHT31;66104;45.456;11.064;2023-06-04T04:09:03;21.31;71.59
68746;SHT31;66104;45.456;11.064;2023-06-04T04:11:40;21.32;71.44
68746;SHT31;66104;45.456;11.064;2023-06-04T04:14:17;21.30;71.43
68746;SHT31;66104;45.456;11.064;2023-06-04T04:16:54;21.37;70.72
68746;SHT31;66104;45.456;11.064;2023-06-04T04:19:31;21.39;69.61
68746;SHT31;66104;45.456;11.064;2023-06-04T04:22:10;21.27;71.00
68746;SHT31;66104;45.456;11.064;2023-06-04T04:24:48;21.24;70.76
68746;SHT31;66104;45.456;11.064;2023-06-04T04:27:25;21.28;70.35
68746;SHT31;66104;45.456;11.064;2023-06-04T04:30:05;21.24;70.29
68746;SHT31;66104;45.456;11.064;2023-06-04T04:32:46;21.08;70.96
68746;SHT31;66104;45.456;11.064;2023-06-04T04:35:28;21.06;71.41
68746;SHT31;66104;45.456;11.064;2023-06-04T04:38:05;21.06;71.51
68746;SHT31;66104;45.456;11.064;2023-06-04T04:40:46;21.07;71.50
68746;SHT31;66104;45.456;11.064;2023-06-04T04:43:32;21.07;71.49
68746;SHT31;66104;45.456;11.064;2023-06-04T04:46:17;21.01;71.71
68746;SHT31;66104;45.456;11.064;2023-06-04T04:48:54;21.12;71.57
68746;SHT31;66104;45.456;11.064;2023-06-04T04:51:30;21.27;71.54
68746;SHT31;66104;45.456;11.064;2023-06-04T04:54:08;21.38;71.33
68746;SHT31;66104;45.456;11.064;2023-06-04T04:56:45;21.45;71.35
68746;SHT31;66104;45.456;11.064;2023-06-04T04:59:40;21.54;71.34
68746;SHT31;66104;45.456;11.064;2023-06-04T05:02:16;21.63;71.18
68746;SHT31;66104;45.456;11.064;2023-06-04T05:04:54;21.72;70.93
68746;SHT31;66104;45.456;11.064;2023-06-04T05:07:30;21.79;70.56
68746;SHT31;66104;45.456;11.064;2023-06-04T05:10:10;21.85;70.64
68746;SHT31;66104;45.456;11.064;2023-06-04T05:12:52;21.86;70.42
68746;SHT31;66104;45.456;11.064;2023-06-04T05:15:38;21.87;70.48
68746;SHT31;66104;45.456;11.064;2023-06-04T05:18:18;21.81;70.62
68746;SHT31;66104;45.456;11.064;2023-06-04T05:21:00;21.85;70.58
68746;SHT31;66104;45.456;11.064;2023-06-04T05:23:40;21.83;70.83
68746;SHT31;66104;45.456;11.064;2023-06-04T05:26:19;21.80;70.31
68746;SHT31;66104;45.456;11.064;2023-06-04T05:29:00;21.87;70.37
68746;SHT31;66104;45.456;11.064;2023-06-04T05:31:38;21.94;70.47
68746;SHT31;66104;45.456;11.064;2023-06-04T05:34:16;22.00;70.72
68746;SHT31;66104;45.456;11.064;2023-06-04T05:36:53;22.08;70.60
68746;SHT31;66104;45.456;11.064;2023-06-04T05:39:29;22.17;70.20
68746;SHT31;66104;45.456;11.064;2023-06-04T05:42:10;22.26;70.04
68746;SHT31;66104;45.456;11.064;2023-06-04T05:44:46;22.33;70.01
68746;SHT31;66104;45.456;11.064;2023-06-04T05:47:24;22.40;69.78
68746;SHT31;66104;45.456;11.064;2023-06-04T05:50:00;22.52;69.64
68746;SHT31;66104;45.456;11.064;2023-06-04T05:52:40;22.57;69.73
68746;SHT31;66104;45.456;11.064;2023-06-04T05:55:17;22.45;69.82
68746;SHT31;66104;45.456;11.064;2023-06-04T05:57:53;22.47;69.99
68746;SHT31;66104;45.456;11.064;2023-06-04T06:00:30;22.36;69.86
68746;SHT31;66104;45.456;11.064;2023-06-04T06:03:07;22.14;70.22
68746;SHT31;66104;45.456;11.064;2023-06-04T06:05:45;22.02;70.98
68746;SHT31;66104;45.456;11.064;2023-06-04T06:08:22;21.91;71.36
68746;SHT31;66104;45.456;11.064;2023-06-04T06:10:58;21.91;71.42
68746;SHT31;66104;45.456;11.064;2023-06-04T06:13:38;21.97;71.38
68746;SHT31;66104;45.456;11.064;2023-06-04T06:16:16;21.99;71.85
68746;SHT31;66104;45.456;11.064;2023-06-04T06:18:54;21.96;72.03
68746;SHT31;66104;45.456;11.064;2023-06-04T06:21:31;21.89;72.22
68746;SHT31;66104;45.456;11.064;2023-06-04T06:24:09;21.85;72.31
68746;SHT31;66104;45.456;11.064;2023-06-04T06:26:46;21.89;72.19
68746;SHT31;66104;45.456;11.064;2023-06-04T06:29:23;21.89;72.08
68746;SHT31;66104;45.456;11.064;2023-06-04T06:32:00;21.85;72.48
68746;SHT31;66104;45.456;11.064;2023-06-04T06:34:37;21.84;72.65
68746;SHT31;66104;45.456;11.064;2023-06-04T06:37:15;21.82;72.62
68746;SHT31;66104;45.456;11.064;2023-06-04T06:39:52;21.81;72.61
68746;SHT31;66104;45.456;11.064;2023-06-04T06:42:33;21.84;72.70
68746;SHT31;66104;45.456;11.064;2023-06-04T06:45:12;21.84;72.59
68746;SHT31;66104;45.456;11.064;2023-06-04T06:47:50;21.80;72.61
68746;SHT31;66104;45.456;11.064;2023-06-04T06:50:26;21.73;72.82
68746;SHT31;66104;45.456;11.064;2023-06-04T06:53:04;21.82;72.75
68746;SHT31;66104;45.456;11.064;2023-06-04T06:55:42;21.92;72.64
68746;SHT31;66104;45.456;11.064;2023-06-04T06:58:18;22.04;72.28
68746;SHT31;66104;45.456;11.064;2023-06-04T07:00:56;22.09;72.11
68746;SHT31;66104;45.456;11.064;2023-06-04T07:03:33;22.17;72.05
68746;SHT31;66104;45.456;11.064;2023-06-04T07:06:10;22.24;71.92
68746;SHT31;66104;45.456;11.064;2023-06-04T07:08:47;22.32;71.93
68746;SHT31;66104;45.456;11.064;2023-06-04T07:11:24;22.40;71.83
68746;SHT31;66104;45.456;11.064;2023-06-04T07:14:02;22.45;72.02
68746;SHT31;66104;45.456;11.064;2023-06-04T07:16:39;22.44;72.13
68746;SHT31;66104;45.456;11.064;2023-06-04T07:19:16;22.46;72.03
68746;SHT31;66104;45.456;11.064;2023-06-04T07:21:54;22.44;72.05
68746;SHT31;66104;45.456;11.064;2023-06-04T07:24:31;22.45;72.09
68746;SHT31;66104;45.456;11.064;2023-06-04T07:27:12;22.45;71.95
68746;SHT31;66104;45.456;11.064;2023-06-04T07:29:49;22.43;71.84
68746;SHT31;66104;45.456;11.064;2023-06-04T07:32:28;22.40;72.01
68746;SHT31;66104;45.456;11.064;2023-06-04T07:35:06;22.36;72.19
68746;SHT31;66104;45.456;11.064;2023-06-04T07:37:45;22.36;72.10
68746;SHT31;66104;45.456;11.064;2023-06-04T07:40:23;22.40;71.99
68746;SHT31;66104;45.456;11.064;2023-06-04T07:42:59;22.47;71.95
68746;SHT31;66104;45.456;11.064;2023-06-04T07:45:37;22.52;72.10
68746;SHT31;66104;45.456;11.064;2023-06-04T07:48:14;22.49;72.29
68746;SHT31;66104;45.456;11.064;2023-06-04T07:50:51;22.52;71.91
68746;SHT31;66104;45.456;11.064;2023-06-04T07:53:28;22.56;71.99
68746;SHT31;66104;45.456;11.064;2023-06-04T07:56:05;22.57;72.08
68746;SHT31;66104;45.456;11.064;2023-06-04T07:58:43;22.47;72.14
68746;SHT31;66104;45.456;11.064;2023-06-04T08:01:20;22.38;72.39
68746;SHT31;66104;45.456;11.064;2023-06-04T08:03:57;22.43;72.17
68746;SHT31;66104;45.456;11.064;2023-06-04T08:06:34;22.44;72.24
68746;SHT31;66104;45.456;11.064;2023-06-04T08:09:11;22.46;72.02
68746;SHT31;66104;45.456;11.064;2023-06-04T08:11:48;22.49;72.06
68746;SHT31;66104;45.456;11.064;2023-06-04T08:14:24;22.48;71.68
68746;SHT31;66104;45.456;11.064;2023-06-04T08:17:00;22.48;71.61
68746;SHT31;66104;45.456;11.064;2023-06-04T08:19:38;22.58;71.27
68746;SHT31;66104;45.456;11.064;2023-06-04T08:22:16;22.64;71.29
68746;SHT31;66104;45.456;11.064;2023-06-04T08:24:53;22.76;70.76
68746;SHT31;66104;45.456;11.064;2023-06-04T08:27:30;22.89;70.31
68746;SHT31;66104;45.456;11.064;2023-06-04T08:30:09;22.99;69.86
68746;SHT31;66104;45.456;11.064;2023-06-04T08:32:46;23.09;69.28
68746;SHT31;66104;45.456;11.064;2023-06-04T08:35:23;23.19;68.77
68746;SHT31;66104;45.456;11.064;2023-06-04T08:38:00;23.28;68.27
68746;SHT31;66104;45.456;11.064;2023-06-04T08:40:37;23.37;67.77
68746;SHT31;66104;45.456;11.064;2023-06-04T08:43:13;23.43;67.61
68746;SHT31;66104;45.456;11.064;2023-06-04T08:45:51;23.51;67.42
68746;SHT31;66104;45.456;11.064;2023-06-04T08:48:37;23.56;67.09
68746;SHT31;66104;45.456;11.064;2023-06-04T08:51:14;23.60;66.99
68746;SHT31;66104;45.456;11.064;2023-06-04T08:53:51;23.62;66.55
68746;SHT31;66104;45.456;11.064;2023-06-04T08:56:29;23.60;66.27
68746;SHT31;66104;45.456;11.064;2023-06-04T08:59:06;23.62;66.23
68746;SHT31;66104;45.456;11.064;2023-06-04T09:01:44;23.62;66.16
68746;SHT31;66104;45.456;11.064;2023-06-04T09:04:22;23.65;65.90
68746;SHT31;66104;45.456;11.064;2023-06-04T09:07:02;23.69;65.63
68746;SHT31;66104;45.456;11.064;2023-06-04T09:09:40;23.70;65.66
68746;SHT31;66104;45.456;11.064;2023-06-04T09:12:40;23.73;65.74
68746;SHT31;66104;45.456;11.064;2023-06-04T09:15:20;23.79;65.71
68746;SHT31;66104;45.456;11.064;2023-06-04T09:17:58;23.83;65.59
68746;SHT31;66104;45.456;11.064;2023-06-04T09:20:36;23.87;65.16
68746;SHT31;66104;45.456;11.064;2023-06-04T09:23:15;23.92;64.95
68746;SHT31;66104;45.456;11.064;2023-06-04T09:25:52;23.94;65.13
68746;SHT31;66104;45.456;11.064;2023-06-04T09:28:37;23.97;64.95
68746;SHT31;66104;45.456;11.064;2023-06-04T09:31:17;24.00;64.81
68746;SHT31;66104;45.456;11.064;2023-06-04T09:33:55;24.03;64.63
68746;SHT31;66104;45.456;11.064;2023-06-04T09:36:32;24.05;64.62
68746;SHT31;66104;45.456;11.064;2023-06-04T09:39:16;24.08;64.33
68746;SHT31;66104;45.456;11.064;2023-06-04T09:44:45;24.19;63.82
68746;SHT31;66104;45.456;11.064;2023-06-04T09:47:21;24.25;63.56
68746;SHT31;66104;45.456;11.064;2023-06-04T09:50:00;24.31;63.15
68746;SHT31;66104;45.456;11.064;2023-06-04T09:52:44;24.32;62.37
68746;SHT31;66104;45.456;11.064;2023-06-04T09:55:22;24.35;62.15
68746;SHT31;66104;45.456;11.064;2023-06-04T09:58:00;24.39;61.24
68746;SHT31;66104;45.456;11.064;2023-06-04T10:00:37;24.37;60.44
68746;SHT31;66104;45.456;11.064;2023-06-04T10:03:15;24.41;60.47
68746;SHT31;66104;45.456;11.064;2023-06-04T10:05:56;24.42;59.73
68746;SHT31;66104;45.456;11.064;2023-06-04T10:08:33;24.44;59.60
68746;SHT31;66104;45.456;11.064;2023-06-04T10:11:17;24.47;59.99
68746;SHT31;66104;45.456;11.064;2023-06-04T10:13:58;24.49;58.50
68746;SHT31;66104;45.456;11.064;2023-06-04T10:16:42;24.46;57.67
68746;SHT31;66104;45.456;11.064;2023-06-04T10:19:21;24.49;57.25
68746;SHT31;66104;45.456;11.064;2023-06-04T10:21:58;24.50;56.40
68746;SHT31;66104;45.456;11.064;2023-06-04T10:24:36;24.44;56.26
68746;SHT31;66104;45.456;11.064;2023-06-04T10:27:15;24.45;56.48
68746;SHT31;66104;45.456;11.064;2023-06-04T10:29:54;24.41;55.94
68746;SHT31;66104;45.456;11.064;2023-06-04T10:32:31;24.34;56.24
68746;SHT31;66104;45.456;11.064;2023-06-04T10:35:10;24.31;56.20
68746;SHT31;66104;45.456;11.064;2023-06-04T10:37:48;24.31;55.01
68746;SHT31;66104;45.456;11.064;2023-06-04T10:40:35;24.32;55.98
68746;SHT31;66104;45.456;11.064;2023-06-04T10:43:14;24.38;55.85
68746;SHT31;66104;45.456;11.064;2023-06-04T10:45:50;24.40;55.48
68746;SHT31;66104;45.456;11.064;2023-06-04T10:48:27;24.47;55.71
68746;SHT31;66104;45.456;11.064;2023-06-04T10:51:04;24.55;55.73
68746;SHT31;66104;45.456;11.064;2023-06-04T10:53:41;24.66;56.06
68746;SHT31;66104;45.456;11.064;2023-06-04T10:56:25;24.79;56.05
68746;SHT31;66104;45.456;11.064;2023-06-04T10:59:12;24.84;54.88
68746;SHT31;66104;45.456;11.064;2023-06-04T11:01:50;24.87;55.28
68746;SHT31;66104;45.456;11.064;2023-06-04T11:04:40;24.99;55.29
68746;SHT31;66104;45.456;11.064;2023-06-04T11:07:17;25.10;54.35
68746;SHT31;66104;45.456;11.064;2023-06-04T11:09:54;25.14;54.04
68746;SHT31;66104;45.456;11.064;2023-06-04T11:12:42;25.13;53.33
68746;SHT31;66104;45.456;11.064;2023-06-04T11:15:20;25.02;51.96
68746;SHT31;66104;45.456;11.064;2023-06-04T11:17:56;24.89;52.34
68746;SHT31;66104;45.456;11.064;2023-06-04T11:20:34;24.83;52.35
68746;SHT31;66104;45.456;11.064;2023-06-04T11:23:13;24.86;53.06
68746;SHT31;66104;45.456;11.064;2023-06-04T11:25:51;24.92;52.75
68746;SHT31;66104;45.456;11.064;2023-06-04T11:28:29;24.97;52.59
68746;SHT31;66104;45.456;11.064;2023-06-04T11:31:06;25.10;54.01
68746;SHT31;66104;45.456;11.064;2023-06-04T11:33:45;25.23;52.93
68746;SHT31;66104;45.456;11.064;2023-06-04T11:36:25;25.30;52.07
68746;SHT31;66104;45.456;11.064;2023-06-04T11:39:03;25.37;52.37
68746;SHT31;66104;45.456;11.064;2023-06-04T11:41:42;25.44;52.03
68746;SHT31;66104;45.456;11.064;2023-06-04T11:44:19;25.49;53.32
68746;SHT31;66104;45.456;11.064;2023-06-04T11:46:56;25.56;53.53
68746;SHT31;66104;45.456;11.064;2023-06-04T11:49:37;25.64;53.53
68746;SHT31;66104;45.456;11.064;2023-06-04T11:52:17;25.67;52.98
68746;SHT31;66104;45.456;11.064;2023-06-04T11:54:56;25.70;53.40
68746;SHT31;66104;45.456;11.064;2023-06-04T11:57:33;25.75;53.19
68746;SHT31;66104;45.456;11.064;2023-06-04T12:00:14;25.77;53.08
68746;SHT31;66104;45.456;11.064;2023-06-04T12:02:52;25.79;52.86
68746;SHT31;66104;45.456;11.064;2023-06-04T12:05:30;25.84;53.03
68746;SHT31;66104;45.456;11.064;2023-06-04T12:08:08;25.90;52.26
68746;SHT31;66104;45.456;11.064;2023-06-04T12:10:45;25.90;52.01
68746;SHT31;66104;45.456;11.064;2023-06-04T12:13:22;25.88;52.31
68746;SHT31;66104;45.456;11.064;2023-06-04T12:16:09;25.87;52.12
68746;SHT31;66104;45.456;11.064;2023-06-04T12:18:51;25.93;52.16
68746;SHT31;66104;45.456;11.064;2023-06-04T12:21:39;26.03;52.53
68746;SHT31;66104;45.456;11.064;2023-06-04T12:24:16;26.11;52.10
68746;SHT31;66104;45.456;11.064;2023-06-04T12:27:00;26.13;51.52
68746;SHT31;66104;45.456;11.064;2023-06-04T12:29:37;25.97;51.77
68746;SHT31;66104;45.456;11.064;2023-06-04T12:32:25;25.84;51.41
68746;SHT31;66104;45.456;11.064;2023-06-04T12:35:02;25.81;51.90
68746;SHT31;66104;45.456;11.064;2023-06-04T12:37:41;25.87;51.36
68746;SHT31;66104;45.456;11.064;2023-06-04T12:40:18;25.91;50.64
68746;SHT31;66104;45.456;11.064;2023-06-04T12:42:55;25.95;51.00
68746;SHT31;66104;45.456;11.064;2023-06-04T12:45:33;25.95;51.02
68746;SHT31;66104;45.456;11.064;2023-06-04T12:48:09;25.87;50.09
68746;SHT31;66104;45.456;11.064;2023-06-04T12:50:45;25.89;50.62
68746;SHT31;66104;45.456;11.064;2023-06-04T12:53:22;25.96;49.72
68746;SHT31;66104;45.456;11.064;2023-06-04T12:55:59;25.95;50.25
68746;SHT31;66104;45.456;11.064;2023-06-04T12:58:37;26.05;50.66
68746;SHT31;66104;45.456;11.064;2023-06-04T13:01:14;26.16;50.81
68746;SHT31;66104;45.456;11.064;2023-06-04T13:03:55;26.27;50.27
68746;SHT31;66104;45.456;11.064;2023-06-04T13:06:33;26.31;49.97
68746;SHT31;66104;45.456;11.064;2023-06-04T13:09:10;26.35;50.53
68746;SHT31;66104;45.456;11.064;2023-06-04T13:11:48;26.42;50.28
68746;SHT31;66104;45.456;11.064;2023-06-04T13:14:26;26.48;49.91
68746;SHT31;66104;45.456;11.064;2023-06-04T13:17:04;26.53;49.76
68746;SHT31;66104;45.456;11.064;2023-06-04T13:19:50;26.52;48.81
68746;SHT31;66104;45.456;11.064;2023-06-04T13:22:28;26.52;49.05
68746;SHT31;66104;45.456;11.064;2023-06-04T13:25:07;26.60;49.01
68746;SHT31;66104;45.456;11.064;2023-06-04T13:27:45;26.61;49.17
68746;SHT31;66104;45.456;11.064;2023-06-04T13:30:22;26.53;49.15
68746;SHT31;66104;45.456;11.064;2023-06-04T13:33:00;26.48;49.14
68746;SHT31;66104;45.456;11.064;2023-06-04T13:35:37;26.43;49.64
68746;SHT31;66104;45.456;11.064;2023-06-04T13:38:14;26.50;50.30
68746;SHT31;66104;45.456;11.064;2023-06-04T13:40:52;26.60;49.51
68746;SHT31;66104;45.456;11.064;2023-06-04T13:43:28;26.68;49.43
68746;SHT31;66104;45.456;11.064;2023-06-04T13:46:05;26.77;49.14
68746;SHT31;66104;45.456;11.064;2023-06-04T13:48:42;26.76;48.57
68746;SHT31;66104;45.456;11.064;2023-06-04T13:51:19;26.75;48.80
68746;SHT31;66104;45.456;11.064;2023-06-04T13:53:56;26.84;48.46
68746;SHT31;66104;45.456;11.064;2023-06-04T13:56:33;26.95;48.91
68746;SHT31;66104;45.456;11.064;2023-06-04T13:59:10;27.01;47.59
68746;SHT31;66104;45.456;11.064;2023-06-04T14:01:48;26.88;47.29
68746;SHT31;66104;45.456;11.064;2023-06-04T14:04:25;26.87;47.70
68746;SHT31;66104;45.456;11.064;2023-06-04T14:07:01;26.94;47.38
68746;SHT31;66104;45.456;11.064;2023-06-04T14:09:39;27.01;47.27
68746;SHT31;66104;45.456;11.064;2023-06-04T14:12:15;27.10;47.31
68746;SHT31;66104;45.456;11.064;2023-06-04T14:14:52;27.14;47.22
68746;SHT31;66104;45.456;11.064;2023-06-04T14:17:30;27.09;47.92
68746;SHT31;66104;45.456;11.064;2023-06-04T14:20:09;27.12;47.75
68746;SHT31;66104;45.456;11.064;2023-06-04T14:22:47;27.14;47.65
68746;SHT31;66104;45.456;11.064;2023-06-04T14:25:25;27.15;48.19
68746;SHT31;66104;45.456;11.064;2023-06-04T14:28:06;27.14;48.00
68746;SHT31;66104;45.456;11.064;2023-06-04T14:30:43;27.09;47.84
68746;SHT31;66104;45.456;11.064;2023-06-04T14:33:20;27.05;47.82
68746;SHT31;66104;45.456;11.064;2023-06-04T14:35:58;26.97;48.27
68746;SHT31;66104;45.456;11.064;2023-06-04T14:38:36;26.88;47.93
68746;SHT31;66104;45.456;11.064;2023-06-04T14:41:14;26.73;48.49
68746;SHT31;66104;45.456;11.064;2023-06-04T14:43:50;26.71;48.78
68746;SHT31;66104;45.456;11.064;2023-06-04T14:46:28;26.71;49.10
68746;SHT31;66104;45.456;11.064;2023-06-04T14:49:05;26.69;48.80
68746;SHT31;66104;45.456;11.064;2023-06-04T14:51:42;26.69;48.81
68746;SHT31;66104;45.456;11.064;2023-06-04T14:54:18;26.71;48.39
68746;SHT31;66104;45.456;11.064;2023-06-04T14:56:55;26.76;48.36
68746;SHT31;66104;45.456;11.064;2023-06-04T14:59:32;26.79;48.26
68746;SHT31;66104;45.456;11.064;2023-06-04T15:02:12;26.81;49.13
68746;SHT31;66104;45.456;11.064;2023-06-04T15:04:50;26.87;48.92
68746;SHT31;66104;45.456;11.064;2023-06-04T15:07:28;26.88;49.50
68746;SHT31;66104;45.456;11.064;2023-06-04T15:10:09;26.84;48.95
68746;SHT31;66104;45.456;11.064;2023-06-04T15:12:48;26.71;49.07
68746;SHT31;66104;45.456;11.064;2023-06-04T15:15:25;26.69;49.41
68746;SHT31;66104;45.456;11.064;2023-06-04T15:18:03;26.67;49.62
68746;SHT31;66104;45.456;11.064;2023-06-04T15:20:40;26.64;50.16
68746;SHT31;66104;45.456;11.064;2023-06-04T15:23:18;26.53;50.36
68746;SHT31;66104;45.456;11.064;2023-06-04T15:25:55;26.36;50.66
68746;SHT31;66104;45.456;11.064;2023-06-04T15:28:32;26.27;51.18
68746;SHT31;66104;45.456;11.064;2023-06-04T15:31:10;26.19;51.38
68746;SHT31;66104;45.456;11.064;2023-06-04T15:33:47;26.10;51.25
68746;SHT31;66104;45.456;11.064;2023-06-04T15:36:26;26.08;51.74
68746;SHT31;66104;45.456;11.064;2023-06-04T15:39:03;26.04;51.41
68746;SHT31;66104;45.456;11.064;2023-06-04T15:41:40;26.00;51.90
68746;SHT31;66104;45.456;11.064;2023-06-04T15:44:17;25.97;51.91
68746;SHT31;66104;45.456;11.064;2023-06-04T15:46:55;25.88;52.26
68746;SHT31;66104;45.456;11.064;2023-06-04T15:49:32;25.82;52.54
68746;SHT31;66104;45.456;11.064;2023-06-04T15:52:09;25.80;52.54
68746;SHT31;66104;45.456;11.064;2023-06-04T15:54:48;25.72;52.86
68746;SHT31;66104;45.456;11.064;2023-06-04T15:57:25;25.63;53.17
68746;SHT31;66104;45.456;11.064;2023-06-04T16:00:03;25.53;53.12
68746;SHT31;66104;45.456;11.064;2023-06-04T16:02:44;25.41;53.51
68746;SHT31;66104;45.456;11.064;2023-06-04T16:05:21;25.36;54.20
68746;SHT31;66104;45.456;11.064;2023-06-04T16:07:58;25.31;54.27
68746;SHT31;66104;45.456;11.064;2023-06-04T16:10:36;25.25;54.56
68746;SHT31;66104;45.456;11.064;2023-06-04T16:13:13;25.20;54.67
68746;SHT31;66104;45.456;11.064;2023-06-04T16:15:50;25.14;55.00
68746;SHT31;66104;45.456;11.064;2023-06-04T16:18:28;25.09;55.31
68746;SHT31;66104;45.456;11.064;2023-06-04T16:21:05;25.03;55.42
68746;SHT31;66104;45.456;11.064;2023-06-04T16:23:42;24.99;55.64
68746;SHT31;66104;45.456;11.064;2023-06-04T16:26:19;24.95;55.86